Time;durP1;ratioP1;P1;durP2;ratioP2;P2;SDS_P1;SDS_P2;PMS_P1;PMS_P2;Temp;Humidity;BMP_temperature;BMP_pressure;BME280_temperature;BME280_humidity;BME280_pressure;Samples;Min_cycle;Max_cycle;Signal;HPM_P1;HPM_P2
2023/08/11 00:01:00;;;;;;;4.43;3.23;;;15.00;18.60;;;;;;4935795;29;20426;-72
2023/08/11 00:03:26;;;;;;;4.80;2.73;;;15.00;18.90;;;;;;4934692;29;20469;-73
2023/08/11 00:05:54;;;;;;;3.97;2.93;;;15.00;19.10;;;;;;4936490;29;20181;-73
2023/08/11 00:08:20;;;;;;;3.80;2.60;;;15.00;18.80;;;;;;4936383;29;20171;-73
2023/08/11 00:10:46;;;;;;;3.20;2.37;;;14.90;19.70;;;;;;4936709;29;20416;-73
2023/08/11 00:13:13;;;;;;;4.40;2.70;;;14.90;19.80;;;;;;4950701;29;20224;-73
2023/08/11 00:15:39;;;;;;;5.80;3.00;;;14.80;20.30;;;;;;4936342;29;20726;-73
2023/08/11 00:18:07;;;;;;;4.57;2.50;;;14.80;20.80;;;;;;4936238;29;20439;-73
2023/08/11 00:20:32;;;;;;;3.77;2.77;;;14.70;20.90;;;;;;4936208;29;20434;-72
2023/08/11 00:22:58;;;;;;;3.07;2.60;;;14.60;21.50;;;;;;4935700;29;21010;-73
2023/08/11 00:25:23;;;;;;;5.60;2.37;;;14.60;21.70;;;;;;4936352;29;20540;-73
2023/08/11 00:27:49;;;;;;;4.60;2.33;;;14.60;21.50;;;;;;4935998;29;20556;-73
2023/08/11 00:30:15;;;;;;;3.90;2.40;;;14.60;21.50;;;;;;4936041;29;20186;-73
2023/08/11 00:32:41;;;;;;;3.70;2.77;;;14.60;21.50;;;;;;4935775;29;20436;-73
2023/08/11 00:35:07;;;;;;;3.27;2.37;;;14.60;21.50;;;;;;4934608;29;20280;-73
2023/08/11 00:37:33;;;;;;;3.93;2.90;;;14.40;22.00;;;;;;4935741;29;20196;-73
2023/08/11 00:39:59;;;;;;;5.00;2.53;;;14.30;22.80;;;;;;4934594;29;20436;-72
2023/08/11 00:42:25;;;;;;;4.30;2.47;;;14.40;23.70;;;;;;4934225;29;20465;-73
2023/08/11 00:44:51;;;;;;;4.33;2.83;;;14.30;23.70;;;;;;4935404;29;20269;-73
2023/08/11 00:47:17;;;;;;;3.33;1.90;;;14.40;22.70;;;;;;4935536;29;20416;-73
2023/08/11 00:49:43;;;;;;;4.27;3.10;;;14.40;23.10;;;;;;4935352;29;20516;-72
2023/08/11 00:52:11;;;;;;;4.33;3.43;;;14.40;23.20;;;;;;4934027;29;20494;-72
2023/08/11 00:54:37;;;;;;;4.33;2.77;;;14.40;23.40;;;;;;4935268;29;21013;-73
2023/08/11 00:57:03;;;;;;;4.50;3.13;;;14.40;23.30;;;;;;4935531;29;20432;-72
2023/08/11 00:59:28;;;;;;;4.97;2.77;;;14.40;22.90;;;;;;4935538;29;20298;-73
2023/08/11 01:01:54;;;;;;;4.37;2.70;;;14.40;23.20;;;;;;4935185;29;20426;-73
2023/08/11 01:04:20;;;;;;;3.33;2.10;;;14.30;23.40;;;;;;4935871;29;20245;-73
2023/08/11 01:07:02;;;;;;;4.17;3.17;;;14.30;24.10;;;;;;4935330;29;20169;-73
2023/08/11 01:09:45;;;;;;;3.70;3.00;;;14.20;24.60;;;;;;4935177;29;20437;-73
2023/08/11 01:12:31;;;;;;;4.00;3.10;;;14.30;23.60;;;;;;4934878;29;20434;-73
2023/08/11 01:15:03;;;;;;;4.77;2.90;;;14.20;23.60;;;;;;4935240;29;20496;-73
2023/08/11 01:17:30;;;;;;;4.07;2.70;;;14.20;24.20;;;;;;4935341;29;20828;-73
2023/08/11 01:19:57;;;;;;;3.33;2.30;;;14.20;25.00;;;;;;4935269;29;20430;-73
2023/08/11 01:22:27;;;;;;;3.40;2.47;;;14.20;25.50;;;;;;4934708;29;20524;-73
2023/08/11 01:24:54;;;;;;;4.10;2.80;;;14.20;24.40;;;;;;4984901;23;20496;-71
2023/08/11 01:27:20;;;;;;;5.03;3.33;;;14.20;25.10;;;;;;4973376;28;20425;-71
2023/08/11 01:29:45;;;;;;;3.57;2.67;;;14.20;24.80;;;;;;4973443;28;20437;-70
2023/08/11 01:32:11;;;;;;;3.47;2.33;;;14.20;25.00;;;;;;4973435;28;20653;-71
2023/08/11 01:34:37;;;;;;;3.93;2.70;;;14.10;25.00;;;;;;4971986;28;20680;-71
2023/08/11 01:37:03;;;;;;;4.60;2.80;;;14.10;24.80;;;;;;4973269;28;20445;-71
2023/08/11 01:39:30;;;;;;;3.40;2.37;;;14.10;25.20;;;;;;4970108;28;20290;-71
2023/08/11 01:41:56;;;;;;;3.90;2.97;;;14.10;25.00;;;;;;4972971;28;20427;-71
2023/08/11 01:44:22;;;;;;;2.70;1.90;;;14.10;25.40;;;;;;4971842;28;20443;-71
2023/08/11 01:46:50;;;;;;;3.43;2.97;;;14.10;25.30;;;;;;4973151;28;20427;-71
2023/08/11 01:49:17;;;;;;;3.10;2.53;;;14.00;25.30;;;;;;4965261;28;20794;-71
2023/08/11 01:51:43;;;;;;;4.73;3.43;;;14.00;25.50;;;;;;4953897;28;20476;-72
2023/08/11 01:54:09;;;;;;;4.80;2.97;;;14.00;25.70;;;;;;4953482;28;20456;-72
2023/08/11 01:56:37;;;;;;;3.33;2.63;;;14.00;25.80;;;;;;4952616;29;20485;-71
2023/08/11 01:59:04;;;;;;;4.00;2.70;;;13.90;26.10;;;;;;4953097;28;20437;-71
2023/08/11 02:01:30;;;;;;;4.60;2.50;;;13.90;25.90;;;;;;4957618;28;20450;-71
2023/08/11 02:03:56;;;;;;;4.93;3.10;;;13.90;25.80;;;;;;4967019;28;20515;-71
2023/08/11 02:06:21;;;;;;;5.70;3.60;;;13.90;26.10;;;;;;4977148;28;20185;-72
2023/08/11 02:08:47;;;;;;;4.20;3.13;;;13.90;26.40;;;;;;4975065;28;20198;-72
2023/08/11 02:11:13;;;;;;;3.83;3.20;;;13.90;26.40;;;;;;4976916;28;20236;-71
2023/08/11 02:13:39;;;;;;;4.50;2.97;;;13.90;26.70;;;;;;4976530;28;20284;-72
2023/08/11 02:16:05;;;;;;;4.60;3.00;;;13.80;26.80;;;;;;4966863;28;20847;-71
2023/08/11 02:18:30;;;;;;;3.40;2.57;;;13.70;27.40;;;;;;4957450;28;20450;-71
2023/08/11 02:20:56;;;;;;;4.07;2.90;;;13.70;27.10;;;;;;4956222;29;20181;-71
2023/08/11 02:23:21;;;;;;;3.83;2.63;;;13.70;27.40;;;;;;4957012;28;20220;-72
2023/08/11 02:25:47;;;;;;;4.43;3.30;;;13.60;28.10;;;;;;4967945;28;20215;-72
2023/08/11 02:28:13;;;;;;;5.53;3.27;;;13.60;28.60;;;;;;4976857;28;20232;-71
2023/08/11 02:30:40;;;;;;;5.10;3.10;;;13.70;28.00;;;;;;4976636;28;20175;-71
2023/08/11 02:33:06;;;;;;;6.27;3.77;;;13.60;28.70;;;;;;4974954;28;20190;-70
2023/08/11 02:35:32;;;;;;;5.13;2.73;;;13.60;29.20;;;;;;4975265;28;20532;-71
2023/08/11 02:37:58;;;;;;;3.53;2.87;;;13.50;29.60;;;;;;4975208;28;20431;-71
2023/08/11 02:40:24;;;;;;;6.50;3.00;;;13.50;29.10;;;;;;4960245;28;20274;-71
2023/08/11 02:42:54;;;;;;;3.23;2.23;;;13.50;29.10;;;;;;4956857;28;20198;-71
2023/08/11 02:45:19;;;;;;;5.03;3.43;;;13.50;29.40;;;;;;4957197;28;20798;-71
2023/08/11 02:47:45;;;;;;;3.30;2.60;;;13.40;29.10;;;;;;4957298;28;20493;-71
2023/08/11 02:50:11;;;;;;;4.87;3.77;;;13.50;29.30;;;;;;4957947;28;20201;-71
2023/08/11 02:52:37;;;;;;;3.67;3.03;;;13.50;29.30;;;;;;4955526;28;20186;-70
2023/08/11 02:55:04;;;;;;;3.37;3.07;;;13.50;29.90;;;;;;4955376;29;20439;-70
2023/08/11 02:57:31;;;;;;;4.77;3.50;;;13.50;29.50;;;;;;4955503;28;20425;-71
2023/08/11 02:59:56;;;;;;;3.80;2.83;;;13.60;29.20;;;;;;4956693;28;20955;-71
2023/08/11 03:02:22;;;;;;;5.23;3.23;;;13.60;29.20;;;;;;4956388;28;20465;-71
2023/08/11 03:04:48;;;;;;;3.40;2.80;;;13.60;29.40;;;;;;4971998;28;20745;-72
2023/08/11 03:07:14;;;;;;;4.57;3.57;;;13.50;29.20;;;;;;4974684;28;20177;-71
2023/08/11 03:09:40;;;;;;;6.07;3.23;;;13.60;29.20;;;;;;4975865;28;20496;-71
2023/08/11 03:12:07;;;;;;;4.63;3.50;;;13.60;29.20;;;;;;4973184;28;20928;-71
2023/08/11 03:14:33;;;;;;;3.90;2.93;;;13.50;29.10;;;;;;4975950;28;20349;-70
2023/08/11 03:16:59;;;;;;;5.07;3.07;;;13.50;29.50;;;;;;4961946;28;20442;-71
2023/08/11 03:19:25;;;;;;;5.33;3.40;;;13.50;29.80;;;;;;4956437;28;21028;-71
2023/08/11 03:21:51;;;;;;;4.63;2.60;;;13.40;29.60;;;;;;4956110;29;20193;-71
2023/08/11 03:24:16;;;;;;;5.20;3.07;;;13.30;30.40;;;;;;4956270;28;20475;-70
2023/08/11 03:26:42;;;;;;;5.23;3.73;;;13.40;30.20;;;;;;4955112;29;20274;-70
2023/08/11 03:29:07;;;;;;;7.77;3.70;;;13.40;31.00;;;;;;4955023;28;20180;-70
2023/08/11 03:31:33;;;;;;;3.80;2.93;;;13.40;31.20;;;;;;4971468;28;20245;-70
2023/08/11 03:33:58;;;;;;;5.23;4.00;;;13.30;31.30;;;;;;4975332;28;20209;-71
2023/08/11 03:36:25;;;;;;;6.73;4.87;;;13.40;31.70;;;;;;4975593;28;20193;-70
2023/08/11 03:38:51;;;;;;;4.00;3.23;;;13.30;31.80;;;;;;4975368;28;20189;-69
2023/08/11 03:41:17;;;;;;;4.23;3.20;;;13.30;31.60;;;;;;4975325;28;20504;-69
2023/08/11 03:43:42;;;;;;;4.80;3.43;;;13.40;31.80;;;;;;4973695;28;20474;-69
2023/08/11 03:46:08;;;;;;;6.17;4.20;;;13.40;32.10;;;;;;4959216;28;20434;-69
2023/08/11 03:48:33;;;;;;;4.73;2.90;;;13.30;31.90;;;;;;4955916;29;20186;-70
2023/08/11 03:51:02;;;;;;;5.10;3.80;;;13.30;32.40;;;;;;4954641;29;20186;-70
2023/08/11 03:53:30;;;;;;;4.30;3.70;;;13.30;32.30;;;;;;4955378;28;20250;-70
2023/08/11 03:55:55;;;;;;;4.23;3.30;;;13.30;32.80;;;;;;4955950;28;20423;-70
2023/08/11 03:58:21;;;;;;;3.40;2.80;;;13.30;31.60;;;;;;4954643;28;20845;-69
2023/08/11 04:00:47;;;;;;;5.03;3.90;;;13.30;32.50;;;;;;4974058;28;20189;-69
2023/08/11 04:03:14;;;;;;;4.40;3.60;;;13.30;32.70;;;;;;4973100;28;20203;-70
2023/08/11 04:05:41;;;;;;;5.37;3.77;;;13.20;33.50;;;;;;4974913;28;20416;-70
2023/08/11 04:08:06;;;;;;;3.70;2.87;;;13.20;33.80;;;;;;4974857;28;20473;-70
2023/08/11 04:10:32;;;;;;;3.70;3.30;;;13.20;33.80;;;;;;4973582;28;20430;-71
2023/08/11 04:12:58;;;;;;;4.90;3.87;;;13.30;33.90;;;;;;4969757;28;20189;-70
2023/08/11 04:15:24;;;;;;;4.93;3.17;;;13.30;33.90;;;;;;4955396;29;20806;-70
2023/08/11 04:17:49;;;;;;;5.60;3.57;;;13.30;33.90;;;;;;4955382;28;20178;-70
2023/08/11 04:20:16;;;;;;;4.23;3.50;;;13.20;34.30;;;;;;4955388;29;20413;-70
2023/08/11 04:22:41;;;;;;;4.63;4.07;;;13.20;34.30;;;;;;4954759;28;20203;-70
2023/08/11 04:25:09;;;;;;;7.50;4.40;;;13.30;34.80;;;;;;4955087;28;20958;-70
2023/08/11 04:27:35;;;;;;;3.90;3.40;;;13.30;34.10;;;;;;4961785;28;20199;-70
2023/08/11 04:30:00;;;;;;;5.17;3.60;;;13.30;33.90;;;;;;4972978;28;20425;-70
2023/08/11 04:32:26;;;;;;;4.80;3.20;;;13.30;33.90;;;;;;4974167;28;20420;-70
2023/08/11 04:34:51;;;;;;;6.67;4.73;;;13.40;33.90;;;;;;4974227;28;20207;-69
2023/08/11 04:37:18;;;;;;;4.00;3.10;;;13.40;33.10;;;;;;4961104;28;20222;-70
2023/08/11 04:39:43;;;;;;;5.07;4.57;;;13.40;33.10;;;;;;4953716;29;20205;-69
2023/08/11 04:42:09;;;;;;;4.83;3.67;;;13.50;33.30;;;;;;4958158;28;20520;-70
2023/08/11 04:44:34;;;;;;;4.37;3.33;;;13.50;32.60;;;;;;4963377;28;20211;-70
2023/08/11 04:47:00;;;;;;;3.73;3.00;;;13.50;32.20;;;;;;4953697;29;20257;-70
2023/08/11 04:49:26;;;;;;;4.33;3.60;;;13.50;32.70;;;;;;4954927;28;20187;-69
2023/08/11 04:51:51;;;;;;;5.90;3.50;;;13.50;32.30;;;;;;4954057;29;20182;-70
2023/08/11 04:54:17;;;;;;;5.33;3.77;;;13.70;31.30;;;;;;4953900;28;20258;-69
2023/08/11 04:56:43;;;;;;;6.33;3.70;;;13.70;31.60;;;;;;4957130;28;20283;-69
2023/08/11 04:59:09;;;;;;;4.97;4.07;;;13.70;31.60;;;;;;4954634;28;20447;-70
2023/08/11 05:01:35;;;;;;;4.23;3.33;;;13.70;31.30;;;;;;4956157;29;20515;-71
2023/08/11 05:04:01;;;;;;;4.70;3.57;;;13.70;30.70;;;;;;4954905;29;20216;-71
2023/08/11 05:06:26;;;;;;;6.43;3.70;;;13.80;31.00;;;;;;4954375;29;20420;-72
2023/08/11 05:08:52;;;;;;;3.90;3.50;;;13.80;30.70;;;;;;4953421;29;20973;-72
2023/08/11 05:11:17;;;;;;;5.30;3.80;;;14.00;29.10;;;;;;4962110;28;20191;-72
2023/08/11 05:13:43;;;;;;;5.00;3.53;;;14.10;28.90;;;;;;4972098;28;20294;-72
2023/08/11 05:16:09;;;;;;;4.60;3.10;;;14.20;28.60;;;;;;4973551;28;20196;-71
2023/08/11 05:18:35;;;;;;;7.60;4.07;;;14.20;28.30;;;;;;4972290;28;20182;-71
2023/08/11 05:21:03;;;;;;;5.03;3.57;;;14.30;27.80;;;;;;4973538;28;20418;-71
2023/08/11 05:23:28;;;;;;;4.37;3.47;;;14.50;28.10;;;;;;4973055;28;20475;-72
2023/08/11 05:25:54;;;;;;;4.10;3.33;;;14.70;27.90;;;;;;4959095;28;20437;-70
2023/08/11 05:28:19;;;;;;;5.13;2.90;;;14.90;26.00;;;;;;4954122;29;20184;-70
2023/08/11 05:30:45;;;;;;;5.00;3.60;;;15.20;25.00;;;;;;4952815;29;20181;-70
2023/08/11 05:33:12;;;;;;;5.97;3.40;;;15.50;23.30;;;;;;4953842;28;20178;-72
2023/08/11 05:35:40;;;;;;;5.23;4.20;;;15.60;21.00;;;;;;4952585;28;20271;-69
2023/08/11 05:38:05;;;;;;;7.07;5.10;;;16.00;19.60;;;;;;4967191;28;20475;-70
2023/08/11 05:40:31;;;;;;;5.73;3.10;;;16.80;18.10;;;;;;4973210;28;20504;-70
2023/08/11 05:42:57;;;;;;;6.37;3.43;;;18.90;10.00;;;;;;4972823;28;20291;-69
2023/08/11 05:45:23;;;;;;;5.30;3.83;;;21.50;1.50;;;;;;4973126;28;20500;-70
2023/08/11 05:47:48;;;;;;;5.40;4.00;;;22.80;1.00;;;;;;4973205;28;20704;-70
2023/08/11 05:50:14;;;;;;;5.33;4.07;;;23.90;1.00;;;;;;4973063;28;20181;-70
2023/08/11 05:52:39;;;;;;;5.77;3.87;;;24.80;1.00;;;;;;4970675;28;20599;-69
2023/08/11 05:55:05;;;;;;;5.20;4.77;;;25.30;1.00;;;;;;4972767;28;20201;-70
2023/08/11 05:57:31;;;;;;;4.37;4.07;;;26.30;1.00;;;;;;4973091;28;20173;-70
2023/08/11 05:59:57;;;;;;;6.80;5.13;;;28.00;1.00;;;;;;4972956;28;20504;-68
2023/08/11 06:02:22;;;;;;;9.27;5.77;;;28.80;1.00;;;;;;4972074;28;20667;-68
2023/08/11 06:04:49;;;;;;;6.13;5.63;;;29.50;1.00;;;;;;4950066;28;20205;-68
2023/08/11 06:07:15;;;;;;;5.23;4.77;;;30.30;1.00;;;;;;4953748;28;20516;-68
2023/08/11 06:09:41;;;;;;;5.80;5.40;;;30.70;1.00;;;;;;4953675;28;20420;-71
2023/08/11 06:12:06;;;;;;;6.10;5.60;;;30.70;1.00;;;;;;4953402;28;20643;-68
2023/08/11 06:14:32;;;;;;;6.33;5.83;;;31.00;1.00;;;;;;4953487;29;20273;-68
2023/08/11 06:16:58;;;;;;;6.60;6.00;;;31.40;1.00;;;;;;4967582;28;20521;-68
2023/08/11 06:19:24;;;;;;;7.30;6.80;;;32.30;1.00;;;;;;4972786;28;20216;-69
2023/08/11 06:21:50;;;;;;;7.33;6.63;;;33.20;1.00;;;;;;4973620;28;20717;-69
2023/08/11 06:24:15;;;;;;;7.77;7.17;;;33.70;1.00;;;;;;4972813;28;20472;-72
2023/08/11 06:26:42;;;;;;;6.60;6.10;;;34.40;1.00;;;;;;4972869;28;20271;-70
2023/08/11 06:29:08;;;;;;;7.87;6.47;;;34.30;1.00;;;;;;4972874;28;20169;-70
2023/08/11 06:31:34;;;;;;;5.97;5.57;;;33.80;1.00;;;;;;4970875;28;20451;-71
2023/08/11 06:34:01;;;;;;;5.77;5.40;;;33.10;1.00;;;;;;4972702;28;20444;-71
2023/08/11 06:36:26;;;;;;;6.23;5.73;;;33.40;1.00;;;;;;4972966;28;20509;-70
2023/08/11 06:38:52;;;;;;;9.53;6.43;;;33.20;1.00;;;;;;4972808;28;20506;-70
2023/08/11 06:41:17;;;;;;;6.60;6.10;;;34.30;1.00;;;;;;4972747;28;20185;-70
2023/08/11 06:43:43;;;;;;;5.67;5.27;;;34.90;1.00;;;;;;4971259;28;20653;-70
2023/08/11 06:46:09;;;;;;;6.80;6.30;;;35.60;1.00;;;;;;4957547;28;20182;-70
2023/08/11 06:48:34;;;;;;;10.83;6.77;;;35.50;1.00;;;;;;4956914;28;20269;-70
2023/08/11 06:51:00;;;;;;;7.10;6.60;;;35.80;1.00;;;;;;4957029;29;20651;-70
2023/08/11 06:53:26;;;;;;;6.80;6.10;;;36.00;1.00;;;;;;4956011;29;20206;-70
2023/08/11 06:55:52;;;;;;;7.87;6.70;;;35.60;1.00;;;;;;4962463;28;20178;-71
2023/08/11 06:58:17;;;;;;;5.80;5.40;;;36.10;1.00;;;;;;4965823;28;20268;-70
2023/08/11 07:00:43;;;;;;;5.77;5.37;;;35.70;1.00;;;;;;4976047;28;20240;-69
2023/08/11 07:03:09;;;;;;;5.80;5.30;;;35.90;1.00;;;;;;4975667;28;20288;-71
2023/08/11 07:05:34;;;;;;;11.47;6.90;;;36.00;1.00;;;;;;4976032;28;20173;-71
2023/08/11 07:08:00;;;;;;;6.57;5.17;;;36.50;1.00;;;;;;4975936;28;20173;-71
2023/08/11 07:10:25;;;;;;;10.20;6.43;;;36.90;1.00;;;;;;4960921;28;20575;-71
2023/08/11 07:12:51;;;;;;;5.80;5.40;;;37.80;1.00;;;;;;4953303;29;20181;-71
2023/08/11 07:15:17;;;;;;;7.40;5.60;;;38.30;1.00;;;;;;4957329;28;20205;-71
2023/08/11 07:17:42;;;;;;;6.37;5.87;;;38.10;1.00;;;;;;4954964;29;20659;-71
2023/08/11 07:20:08;;;;;;;6.63;5.90;;;37.50;1.00;;;;;;4956203;29;20298;-70
2023/08/11 07:22:34;;;;;;;6.30;5.80;;;37.50;1.00;;;;;;4956160;29;20205;-70
2023/08/11 07:24:59;;;;;;;6.57;6.10;;;37.20;1.00;;;;;;4956849;29;20261;-71
2023/08/11 07:27:25;;;;;;;6.97;6.30;;;37.30;1.00;;;;;;4973547;28;20193;-69
2023/08/11 07:29:50;;;;;;;5.63;5.23;;;37.60;1.00;;;;;;4954594;28;20562;-69
2023/08/11 07:32:16;;;;;;;6.73;6.23;;;37.90;1.00;;;;;;4939873;28;20194;-70
2023/08/11 07:34:41;;;;;;;5.87;5.47;;;38.50;1.00;;;;;;4932841;29;20203;-69
2023/08/11 07:37:07;;;;;;;7.67;6.87;;;38.90;1.00;;;;;;4952536;28;20254;-69
2023/08/11 07:39:36;;;;;;;7.23;6.73;;;38.70;1.00;;;;;;4951819;29;20186;-70
2023/08/11 07:42:05;;;;;;;5.97;5.57;;;36.70;1.00;;;;;;4950280;29;20276;-71
2023/08/11 07:44:34;;;;;;;6.73;6.23;;;37.10;1.00;;;;;;4952036;28;20472;-74
2023/08/11 07:47:01;;;;;;;6.50;6.00;;;37.60;1.00;;;;;;4952386;28;20461;-70
2023/08/11 07:49:27;;;;;;;6.63;6.13;;;38.80;1.00;;;;;;4951870;28;20421;-72
2023/08/11 07:51:53;;;;;;;7.03;6.33;;;39.80;1.00;;;;;;4951691;28;20436;-73
2023/08/11 07:54:18;;;;;;;6.10;5.70;;;39.70;1.00;;;;;;4952626;28;20500;-71
2023/08/11 07:56:44;;;;;;;6.03;5.60;;;37.80;1.00;;;;;;4950815;28;20208;-69
2023/08/11 07:59:10;;;;;;;6.67;6.17;;;36.90;1.00;;;;;;4952812;28;20185;-74
2023/08/11 08:01:36;;;;;;;6.00;5.53;;;36.50;1.00;;;;;;4951744;29;20490;-71
2023/08/11 08:04:02;;;;;;;6.17;5.67;;;35.90;1.00;;;;;;4951089;28;20220;-71
2023/08/11 08:06:27;;;;;;;6.30;5.80;;;36.30;1.00;;;;;;4952324;28;20425;-72
2023/08/11 08:08:53;;;;;;;5.73;5.33;;;36.30;1.00;;;;;;4947459;28;20201;-68
2023/08/11 08:11:19;;;;;;;8.50;6.27;;;37.50;1.00;;;;;;4951104;28;20192;-69
2023/08/11 08:13:44;;;;;;;6.80;6.40;;;38.30;1.00;;;;;;4950022;28;20248;-69
2023/08/11 08:16:10;;;;;;;6.60;6.00;;;38.70;1.00;;;;;;4961049;28;20228;-69
2023/08/11 08:18:36;;;;;;;6.53;6.13;;;39.10;1.00;;;;;;4970484;28;20224;-69
2023/08/11 08:21:01;;;;;;;7.10;6.40;;;38.90;1.00;;;;;;4952503;28;20208;-69
2023/08/11 08:23:27;;;;;;;6.77;6.17;;;38.10;1.00;;;;;;4951002;29;20288;-70
2023/08/11 08:25:52;;;;;;;6.30;5.80;;;38.00;1.00;;;;;;4953822;29;20197;-68
2023/08/11 08:28:18;;;;;;;6.57;6.17;;;38.60;1.00;;;;;;4960055;28;20204;-68
2023/08/11 08:30:43;;;;;;;6.43;5.93;;;38.70;1.00;;;;;;4951619;29;20225;-68
2023/08/11 08:33:09;;;;;;;7.07;6.37;;;39.30;1.00;;;;;;4950939;29;20194;-68
2023/08/11 08:35:36;;;;;;;5.80;5.40;;;39.80;1.00;;;;;;4960897;28;20197;-68
2023/08/11 08:38:01;;;;;;;8.30;5.83;;;40.90;1.00;;;;;;4971097;28;20574;-68
2023/08/11 08:40:27;;;;;;;5.67;5.27;;;41.00;1.00;;;;;;4970478;28;20435;-69
2023/08/11 08:42:53;;;;;;;7.17;6.63;;;40.70;1.00;;;;;;4969708;28;20209;-68
2023/08/11 08:45:21;;;;;;;7.50;6.90;;;39.90;1.00;;;;;;4970719;28;20205;-68
2023/08/11 08:47:49;;;;;;;7.07;6.43;;;38.80;1.00;;;;;;4970191;28;20428;-69
2023/08/11 08:50:15;;;;;;;6.47;6.07;;;39.50;1.00;;;;;;4954424;28;20819;-68
2023/08/11 08:52:42;;;;;;;5.80;5.40;;;40.10;1.00;;;;;;4951213;28;20903;-68
2023/08/11 08:55:09;;;;;;;7.50;6.13;;;40.70;1.00;;;;;;4951008;29;20600;-69
2023/08/11 08:57:34;;;;;;;6.33;5.93;;;39.40;1.00;;;;;;4950654;28;20454;-68
2023/08/11 09:00:00;;;;;;;7.07;6.43;;;39.70;1.00;;;;;;4950875;29;20802;-68
2023/08/11 09:02:28;;;;;;;6.73;5.93;;;39.80;1.00;;;;;;4950402;28;20200;-68
2023/08/11 09:04:54;;;;;;;6.30;5.90;;;38.30;1.00;;;;;;4969644;28;20686;-68
2023/08/11 09:07:20;;;;;;;6.30;5.70;;;37.30;1.00;;;;;;4965998;28;20515;-68
2023/08/11 09:09:46;;;;;;;6.40;5.90;;;35.00;1.00;;;;;;4948156;28;20186;-68
2023/08/11 09:12:11;;;;;;;6.07;5.53;;;33.30;1.00;;;;;;4949492;28;20440;-68
2023/08/11 09:14:40;;;;;;;6.07;5.67;;;31.70;1.00;;;;;;4950503;28;20516;-68
2023/08/11 09:17:05;;;;;;;5.70;5.30;;;30.10;1.00;;;;;;4950272;28;20189;-68
2023/08/11 09:19:31;;;;;;;5.87;5.07;;;29.10;1.00;;;;;;4966612;28;20454;-68
2023/08/11 09:21:58;;;;;;;5.70;5.20;;;28.60;1.00;;;;;;4969371;28;20185;-68
2023/08/11 09:24:24;;;;;;;8.60;5.40;;;28.20;1.00;;;;;;4969235;28;20209;-68
2023/08/11 09:26:49;;;;;;;4.80;4.40;;;28.00;1.00;;;;;;4968749;28;20520;-68
2023/08/11 09:29:17;;;;;;;6.80;5.00;;;27.70;1.00;;;;;;4969668;28;20807;-68
2023/08/11 09:31:47;;;;;;;6.77;4.87;;;27.40;1.00;;;;;;4967232;28;20268;-68
2023/08/11 09:34:20;;;;;;;6.53;4.43;;;27.20;1.00;;;;;;4968832;28;20441;-68
2023/08/11 09:36:47;;;;;;;5.43;4.17;;;27.20;1.00;;;;;;4968725;28;20433;-68
2023/08/11 09:39:13;;;;;;;5.23;4.30;;;27.20;1.00;;;;;;4968892;28;20425;-67
2023/08/11 09:41:47;;;;;;;5.20;4.80;;;27.10;1.00;;;;;;4968811;28;20435;-68
2023/08/11 09:44:17;;;;;;;4.70;4.30;;;27.20;1.00;;;;;;4953634;28;20572;-67
2023/08/11 09:46:44;;;;;;;5.90;5.30;;;27.30;1.00;;;;;;4950925;28;20453;-68
2023/08/11 09:49:09;;;;;;;5.33;4.80;;;27.50;1.00;;;;;;4953792;28;20473;-67
2023/08/11 09:51:36;;;;;;;5.10;4.70;;;27.40;1.00;;;;;;4953306;28;20919;-69
2023/08/11 09:54:06;;;;;;;5.10;4.60;;;27.30;1.00;;;;;;4965764;28;20209;-68
2023/08/11 09:56:35;;;;;;;5.37;4.87;;;27.30;1.00;;;;;;4972131;28;20409;-68
2023/08/11 09:59:09;;;;;;;5.33;4.93;;;27.50;1.00;;;;;;4949795;28;20429;-68
2023/08/11 10:01:36;;;;;;;5.50;5.10;;;27.50;1.00;;;;;;4952252;28;20957;-68
2023/08/11 10:04:22;;;;;;;6.40;5.10;;;27.40;1.00;;;;;;4953133;28;20847;-68
2023/08/11 10:06:50;;;;;;;6.57;5.00;;;27.50;1.00;;;;;;4954555;28;20416;-67
2023/08/11 10:09:21;;;;;;;4.23;3.93;;;27.70;1.00;;;;;;4957720;28;20520;-68
2023/08/11 10:11:47;;;;;;;5.63;5.13;;;27.90;1.00;;;;;;4960219;28;20481;-68
2023/08/11 10:14:16;;;;;;;4.90;4.60;;;28.00;1.00;;;;;;4953653;28;20430;-69
2023/08/11 10:16:43;;;;;;;6.10;5.60;;;28.10;1.00;;;;;;4934386;29;20430;-68
2023/08/11 10:19:10;;;;;;;5.67;5.17;;;28.20;1.00;;;;;;4953276;28;20434;-68
2023/08/11 10:21:37;;;;;;;5.40;5.10;;;28.20;1.00;;;;;;4956038;28;20429;-69
2023/08/11 10:24:03;;;;;;;6.27;5.20;;;28.10;1.00;;;;;;4955794;28;20848;-69
2023/08/11 10:26:31;;;;;;;5.27;4.87;;;28.00;1.00;;;;;;4957043;28;20410;-69
2023/08/11 10:28:57;;;;;;;6.10;5.60;;;28.20;1.00;;;;;;4957370;28;20444;-69
2023/08/11 10:31:24;;;;;;;5.10;4.70;;;28.30;1.00;;;;;;4957287;28;20409;-71
2023/08/11 10:33:51;;;;;;;5.07;4.67;;;28.50;1.00;;;;;;4957206;28;21190;-69
2023/08/11 10:36:21;;;;;;;4.97;4.53;;;28.50;1.00;;;;;;4965703;28;20424;-71
2023/08/11 10:38:59;;;;;;;5.40;4.90;;;28.60;1.00;;;;;;4975069;28;20424;-70
2023/08/11 10:41:25;;;;;;;4.73;4.43;;;28.40;1.00;;;;;;4975428;28;20444;-71
2023/08/11 10:43:54;;;;;;;4.27;3.97;;;28.50;1.00;;;;;;4975811;28;20479;-70
2023/08/11 10:46:24;;;;;;;5.13;4.80;;;28.60;1.00;;;;;;4975841;28;20823;-71
2023/08/11 10:48:51;;;;;;;4.73;4.43;;;28.60;1.00;;;;;;4975038;28;20478;-70
2023/08/11 10:51:29;;;;;;;5.80;5.30;;;28.60;1.00;;;;;;4976291;28;20417;-70
2023/08/11 10:53:56;;;;;;;7.03;5.17;;;28.40;1.00;;;;;;4974224;28;20460;-70
2023/08/11 10:56:30;;;;;;;5.33;4.83;;;28.70;1.00;;;;;;4974840;28;20431;-70
2023/08/11 10:59:19;;;;;;;4.70;4.30;;;28.90;1.00;;;;;;4974731;28;20836;-70
2023/08/11 11:01:47;;;;;;;6.00;4.93;;;29.00;1.00;;;;;;4975774;28;20432;-71
2023/08/11 11:04:17;;;;;;;5.33;4.90;;;29.00;1.00;;;;;;4974386;28;20471;-71
2023/08/11 11:06:48;;;;;;;4.47;4.17;;;28.70;1.00;;;;;;4974569;28;20417;-70
2023/08/11 11:09:14;;;;;;;5.37;4.97;;;28.70;1.00;;;;;;4972465;28;20925;-70
2023/08/11 11:11:40;;;;;;;4.97;4.63;;;28.80;1.00;;;;;;4975866;28;20495;-70
2023/08/11 11:14:08;;;;;;;5.10;4.70;;;28.80;1.00;;;;;;4975622;28;20432;-70
2023/08/11 11:16:34;;;;;;;4.60;4.30;;;29.10;1.00;;;;;;4975861;28;20782;-70
2023/08/11 11:19:01;;;;;;;5.53;5.03;;;29.20;1.00;;;;;;4975638;28;20492;-70
2023/08/11 11:21:28;;;;;;;5.70;5.10;;;29.30;1.00;;;;;;4974163;28;20464;-71
2023/08/11 11:23:54;;;;;;;5.87;5.07;;;29.40;1.00;;;;;;4955950;28;20836;-69
2023/08/11 11:26:25;;;;;;;5.23;4.90;;;29.60;1.00;;;;;;4956215;29;20446;-70
2023/08/11 11:28:52;;;;;;;5.20;4.80;;;29.70;1.00;;;;;;4956239;28;20410;-69
2023/08/11 11:31:19;;;;;;;5.23;4.80;;;29.80;1.00;;;;;;4959293;28;20414;-69
2023/08/11 11:33:46;;;;;;;5.10;4.70;;;29.80;1.00;;;;;;4954069;29;20453;-70
2023/08/11 11:36:12;;;;;;;4.97;4.67;;;29.90;1.00;;;;;;4955929;28;20971;-70
2023/08/11 11:38:40;;;;;;;4.43;4.13;;;29.90;1.00;;;;;;4955978;28;20425;-69
2023/08/11 11:41:10;;;;;;;4.87;4.57;;;29.90;1.00;;;;;;4954851;28;20450;-69
2023/08/11 11:43:36;;;;;;;4.90;4.53;;;30.00;1.00;;;;;;4949984;29;20473;-70
2023/08/11 11:46:01;;;;;;;5.30;4.93;;;30.10;1.00;;;;;;4952412;28;20508;-70
2023/08/11 11:48:27;;;;;;;5.20;4.80;;;30.20;1.00;;;;;;4952993;29;20371;-70
2023/08/11 11:50:53;;;;;;;5.40;5.00;;;30.30;1.00;;;;;;4955905;29;20249;-68
2023/08/11 11:53:21;;;;;;;5.60;5.10;;;30.50;1.00;;;;;;4954824;28;20237;-70
2023/08/11 11:55:47;;;;;;;4.53;3.90;;;30.40;1.00;;;;;;4955784;29;20233;-70
2023/08/11 11:58:17;;;;;;;4.80;4.50;;;30.50;1.00;;;;;;4955742;29;20516;-70
2023/08/11 12:00:45;;;;;;;4.50;4.20;;;30.50;1.00;;;;;;4967178;28;20552;-70
2023/08/11 12:03:11;;;;;;;5.27;4.70;;;30.50;1.00;;;;;;4972173;28;20547;-70
2023/08/11 12:05:37;;;;;;;5.07;4.77;;;30.60;1.00;;;;;;4955505;29;20504;-69
2023/08/11 12:08:19;;;;;;;5.30;5.00;;;30.70;1.00;;;;;;4955459;28;20193;-70
2023/08/11 12:10:46;;;;;;;4.93;4.60;;;30.70;1.00;;;;;;4955513;28;20429;-70
2023/08/11 12:13:12;;;;;;;4.60;4.30;;;30.60;1.00;;;;;;4955045;28;20722;-71
2023/08/11 12:15:38;;;;;;;4.77;4.47;;;30.70;1.00;;;;;;4955662;28;20441;-67
2023/08/11 12:18:05;;;;;;;5.27;4.87;;;30.80;1.00;;;;;;4955241;28;20255;-68
2023/08/11 12:20:30;;;;;;;6.70;5.07;;;31.00;1.00;;;;;;4955302;28;20512;-68
2023/08/11 12:22:56;;;;;;;4.63;4.33;;;31.10;1.00;;;;;;4954867;29;21126;-68
2023/08/11 12:25:22;;;;;;;4.83;4.53;;;30.90;1.00;;;;;;4955080;28;20244;-67
2023/08/11 12:27:48;;;;;;;5.17;4.77;;;30.80;1.00;;;;;;4955163;28;20643;-69
2023/08/11 12:30:15;;;;;;;5.17;4.77;;;31.00;1.00;;;;;;4955163;28;20429;-69
2023/08/11 12:32:41;;;;;;;5.40;5.00;;;31.00;1.00;;;;;;4954822;28;20230;-68
2023/08/11 12:35:11;;;;;;;5.13;4.83;;;31.10;1.00;;;;;;4954829;28;20932;-69
2023/08/11 12:37:37;;;;;;;5.07;4.77;;;31.10;1.00;;;;;;4955336;28;20486;-69
2023/08/11 12:40:03;;;;;;;5.07;4.73;;;31.00;1.00;;;;;;4953474;28;20444;-69
2023/08/11 12:42:32;;;;;;;5.30;4.90;;;31.10;1.00;;;;;;4953276;28;20548;-71
2023/08/11 12:44:57;;;;;;;4.50;4.20;;;31.30;1.00;;;;;;4954552;28;20444;-68
2023/08/11 12:47:23;;;;;;;5.60;5.20;;;31.30;1.00;;;;;;4954777;28;20418;-68
2023/08/11 12:49:48;;;;;;;5.03;4.63;;;31.40;1.00;;;;;;4954724;28;20690;-69